METAR luchtvaart weer gegevens      EHDL Deelen Air Base
Temperatuur
10°C Temperatuur
9°C Dauwpunt
94% Vochtigheid



Wind
19 KM/U
12 MPH
5 M/S
10 KTS



300°
WNW
Huidig weer

Lichte Regen, Lichte Motregen Lichte Regen, Lichte Motregen
Luchtdruk 990.92 (hPa) - 29.26 (inHg)
Zicht 6.2 (mijl) - 10 (km)
Vliegveld
Vliegveld code EHDL

Locatie : Deelen Air Base
Afstand: 50 (km)

Metar:
EHDL 051455Z AUTO 30010KT 240V020 9999 -RADZ FEW009 SCT011 BKN013 10/09 Q0991 GRN

Tijd: 05-06-2020 16:55 CEST